createdAt,value
2018-05-27T00:01:41.143Z,77.70
2018-05-27T00:04:10.816Z,77.70
2018-05-27T00:06:41.283Z,79.10
2018-05-27T00:09:10.950Z,79.10
2018-05-27T00:11:41.416Z,78.60
2018-05-27T00:14:11.084Z,78.60
2018-05-27T00:16:40.767Z,78.20
2018-05-27T00:19:10.439Z,78.30
2018-05-27T00:21:40.123Z,78.10
2018-05-27T00:24:10.559Z,78.30
2018-05-27T00:26:40.245Z,78.30
2018-05-27T00:29:09.912Z,78.50
2018-05-27T00:31:39.595Z,78.70
2018-05-27T00:34:09.259Z,79.20
2018-05-27T00:36:38.948Z,79.30
2018-05-27T00:39:08.607Z,79.30
2018-05-27T00:41:39.275Z,79.40
2018-05-27T00:44:08.940Z,79.40
2018-05-27T00:46:39.391Z,79.70
2018-05-27T00:49:09.079Z,79.60
2018-05-27T00:51:39.516Z,79.50
2018-05-27T00:54:09.972Z,79.90
2018-05-27T00:56:39.927Z,79.80
2018-05-27T00:59:09.627Z,80.10
2018-05-27T01:01:39.301Z,80.30
2018-05-27T01:04:09.011Z,80.50
2018-05-27T01:06:38.676Z,80.50
2018-05-27T01:09:08.799Z,81.40
2018-05-27T01:11:38.464Z,80.80
2018-05-27T01:14:08.439Z,80.80
2018-05-27T01:16:38.867Z,80.60
2018-05-27T01:19:09.322Z,81.00
2018-05-27T01:21:38.988Z,81.00
2018-05-27T01:24:09.549Z,80.80
2018-05-27T01:26:39.224Z,80.70
2018-05-27T01:29:09.676Z,81.10
2018-05-27T01:31:39.357Z,81.10
2018-05-27T01:34:09.047Z,81.10
2018-05-27T01:36:38.722Z,81.10
2018-05-27T01:39:08.412Z,81.20
2018-05-27T01:41:39.132Z,81.10
2018-05-27T01:44:08.844Z,81.10
2018-05-27T01:46:39.285Z,81.20
2018-05-27T01:49:08.979Z,81.30
2018-05-27T01:51:39.407Z,81.10
2018-05-27T01:54:09.106Z,81.10
2018-05-27T01:56:39.552Z,81.10
2018-05-27T01:59:09.234Z,81.10
2018-05-27T02:01:38.899Z,81.40
2018-05-27T02:04:08.584Z,81.40
2018-05-27T02:06:38.248Z,81.30
2018-05-27T02:09:07.935Z,81.40
2018-05-27T02:11:37.287Z,81.80
2018-05-27T02:14:07.734Z,81.30
2018-05-27T02:16:37.413Z,81.30
2018-05-27T02:19:07.098Z,81.50
2018-05-27T02:21:36.755Z,81.50
2018-05-27T02:24:06.447Z,81.60
2018-05-27T02:26:36.882Z,81.60
2018-05-27T02:29:07.331Z,81.70
2018-05-27T02:31:37.004Z,81.70
2018-05-27T02:34:07.464Z,81.30
2018-05-27T02:36:37.123Z,81.30
2018-05-27T02:39:06.179Z,81.70
2018-05-27T02:41:35.507Z,82.10
2018-05-27T02:44:05.203Z,82.50
2018-05-27T02:46:34.863Z,82.50
2018-05-27T02:49:05.328Z,82.10
2018-05-27T02:51:34.991Z,82.20
2018-05-27T02:54:05.453Z,82.50
2018-05-27T02:56:35.131Z,82.50
2018-05-27T02:59:05.588Z,82.60
2018-05-27T03:01:35.287Z,82.50
2018-05-27T03:04:04.967Z,82.90
2018-05-27T03:06:35.418Z,83.10
2018-05-27T03:09:05.165Z,83.10
2018-05-27T03:11:34.844Z,82.80
2018-05-27T03:14:04.500Z,83.30
2018-05-27T03:16:34.207Z,83.10
2018-05-27T03:19:04.196Z,82.90
2018-05-27T03:21:33.887Z,82.90
2018-05-27T03:24:03.571Z,83.10
2018-05-27T03:26:34.026Z,82.90
2018-05-27T03:29:03.707Z,82.90
2018-05-27T03:31:34.161Z,82.70
2018-05-27T03:34:03.871Z,82.70
2018-05-27T03:36:33.567Z,82.80
2018-05-27T03:39:03.264Z,82.40
2018-05-27T03:41:33.701Z,82.20
2018-05-27T03:44:03.394Z,82.20
2018-05-27T03:46:33.828Z,82.20
2018-05-27T03:49:03.547Z,82.20
2018-05-27T03:51:33.227Z,82.10
2018-05-27T03:54:02.915Z,82.50
2018-05-27T03:56:32.579Z,81.80
2018-05-27T03:59:04.419Z,81.90
2018-05-27T04:01:34.103Z,81.90
2018-05-27T04:04:15.120Z,81.60
2018-05-27T04:06:55.969Z,81.70
2018-05-27T04:09:26.426Z,82.40
2018-05-27T04:11:56.092Z,82.10
2018-05-27T04:14:25.779Z,81.60
2018-05-27T04:16:55.443Z,81.90
2018-05-27T04:19:25.148Z,82.20
2018-05-27T04:21:55.567Z,81.50
2018-05-27T04:24:25.259Z,81.50
2018-05-27T04:26:55.708Z,81.40
2018-05-27T04:29:25.400Z,81.40
2018-05-27T04:31:55.839Z,81.20
2018-05-27T04:34:25.563Z,81.20
2018-05-27T04:36:55.231Z,81.30
2018-05-27T04:39:24.929Z,81.30
2018-05-27T04:41:54.591Z,81.10
2018-05-27T04:44:24.274Z,80.90
2018-05-27T04:46:54.252Z,81.10
2018-05-27T04:49:23.920Z,81.00
2018-05-27T04:51:53.611Z,81.00
2018-05-27T04:54:24.038Z,80.90
2018-05-27T04:56:54.513Z,80.90
2018-05-27T04:59:24.172Z,80.80
2018-05-27T05:01:54.619Z,80.70
2018-05-27T05:04:24.291Z,80.70
2018-05-27T05:06:53.984Z,80.50
2018-05-27T05:09:24.177Z,81.10
2018-05-27T05:11:54.787Z,81.20
2018-05-27T05:14:24.977Z,81.60
2018-05-27T05:16:54.663Z,81.60
2018-05-27T05:19:24.343Z,81.70
2018-05-27T05:21:54.031Z,81.20
2018-05-27T05:24:23.721Z,80.90
2018-05-27T05:26:53.608Z,81.10
2018-05-27T05:29:23.276Z,80.50
2018-05-27T05:31:52.975Z,81.10
2018-05-27T05:34:22.651Z,81.50
2018-05-27T05:36:53.116Z,82.10
2018-05-27T05:39:22.800Z,82.00
2018-05-27T05:41:53.251Z,82.30
2018-05-27T05:44:22.938Z,82.20
2018-05-27T05:46:53.392Z,82.90
2018-05-27T05:49:23.126Z,82.80
2018-05-27T05:51:53.727Z,82.80
2018-05-27T05:54:23.403Z,82.70
2018-05-27T05:56:53.885Z,82.40
2018-05-27T05:59:23.559Z,82.40
2018-05-27T06:01:53.263Z,82.30
2018-05-27T06:04:23.719Z,82.50
2018-05-27T06:06:53.419Z,82.40
2018-05-27T06:09:23.199Z,82.00
2018-05-27T06:11:53.659Z,82.40
2018-05-27T06:14:23.343Z,82.40
2018-05-27T06:16:53.055Z,82.80
2018-05-27T06:19:23.784Z,83.30
2018-05-27T06:21:54.244Z,82.60
2018-05-27T06:24:24.680Z,82.00
2018-05-27T06:26:54.395Z,82.00
2018-05-27T06:29:24.075Z,81.90
2018-05-27T06:31:53.775Z,81.10
2018-05-27T06:34:23.453Z,81.30
2018-05-27T06:36:53.188Z,81.20
2018-05-27T06:39:23.660Z,80.50
2018-05-27T06:41:53.665Z,80.40
2018-05-27T06:44:23.328Z,80.30
2018-05-27T06:46:53.918Z,80.60
2018-05-27T06:49:23.651Z,80.50
2018-05-27T06:51:53.333Z,80.40
2018-05-27T06:54:22.999Z,80.50
2018-05-27T06:56:53.456Z,80.30
2018-05-27T06:59:23.131Z,80.30
2018-05-27T07:01:53.911Z,81.50
2018-05-27T07:04:23.609Z,81.40
2018-05-27T07:06:53.694Z,81.20
2018-05-27T07:09:23.863Z,80.40
2018-05-27T07:11:53.904Z,79.60
2018-05-27T07:14:23.794Z,78.70
2018-05-27T07:16:53.556Z,78.20
2018-05-27T07:19:24.127Z,77.30
2018-05-27T07:21:53.832Z,77.20
2018-05-27T07:24:23.560Z,77.30
2018-05-27T07:26:53.233Z,76.80
2018-05-27T07:29:23.319Z,76.10
2018-05-27T07:31:54.017Z,75.70
2018-05-27T07:34:24.475Z,75.60
2018-05-27T07:36:54.511Z,75.90
2018-05-27T07:39:25.165Z,73.60
2018-05-27T07:41:55.389Z,73.40
2018-05-27T07:44:25.166Z,72.00
2018-05-27T07:46:55.622Z,72.40
2018-05-27T07:49:25.316Z,72.30
2018-05-27T07:51:55.032Z,73.30
2018-05-27T07:54:24.831Z,73.10
2018-05-27T07:56:55.319Z,73.40
2018-05-27T07:59:25.023Z,73.30
2018-05-27T08:01:54.887Z,73.50
2018-05-27T08:04:25.195Z,74.10
2018-05-27T08:06:55.477Z,74.00
2018-05-27T08:09:25.168Z,74.70
2018-05-27T08:11:54.851Z,75.40
2018-05-27T08:14:24.540Z,75.40
2018-05-27T08:16:54.247Z,75.30
2018-05-27T08:19:23.944Z,75.70
2018-05-27T08:21:53.786Z,75.60
2018-05-27T08:24:24.339Z,76.30
2018-05-27T08:26:54.041Z,76.30
2018-05-27T08:29:23.855Z,76.30
2018-05-27T08:31:53.539Z,76.80
2018-05-27T08:34:24.124Z,76.50
2018-05-27T08:36:54.446Z,76.40
2018-05-27T08:39:24.967Z,76.30
2018-05-27T08:41:54.631Z,76.20
2018-05-27T08:44:25.311Z,76.50
2018-05-27T08:46:54.987Z,76.40
2018-05-27T08:49:25.439Z,76.50
2018-05-27T08:51:55.128Z,76.40
2018-05-27T08:54:24.829Z,75.80
2018-05-27T08:56:55.384Z,75.30
2018-05-27T08:59:25.072Z,75.20
2018-05-27T09:01:54.752Z,75.40
2018-05-27T09:04:24.586Z,75.40
2018-05-27T09:06:54.314Z,74.50
2018-05-27T09:09:24.007Z,74.90
2018-05-27T09:11:54.439Z,73.90
2018-05-27T09:14:24.136Z,73.90
2018-05-27T09:16:54.579Z,72.80
2018-05-27T09:19:24.274Z,72.70
2018-05-27T09:21:54.702Z,70.50
2018-05-27T09:24:25.162Z,70.20
2018-05-27T09:26:54.832Z,70.10
2018-05-27T09:29:25.355Z,71.60
2018-05-27T09:31:55.790Z,69.00
2018-05-27T09:34:26.283Z,69.60
2018-05-27T09:36:55.961Z,69.50
2018-05-27T09:39:25.640Z,69.90
2018-05-27T09:41:56.076Z,67.70
2018-05-27T09:44:25.759Z,67.70
2018-05-27T09:46:56.193Z,67.40
2018-05-27T09:49:26.727Z,67.80
2018-05-27T09:51:57.155Z,69.20
2018-05-27T09:54:27.601Z,70.50
2018-05-27T09:56:57.271Z,70.50
2018-05-27T09:59:26.962Z,69.50
2018-05-27T10:01:56.627Z,67.70
2018-05-27T10:04:26.311Z,68.80
2018-05-27T10:06:56.735Z,66.60
2018-05-27T10:09:26.434Z,66.40
2018-05-27T10:11:56.113Z,65.70
2018-05-27T10:14:25.825Z,64.60
2018-05-27T10:16:55.503Z,63.80
2018-05-27T10:19:25.199Z,64.90
2018-05-27T10:21:55.635Z,65.40
2018-05-27T10:24:25.492Z,65.30
2018-05-27T10:26:55.925Z,64.00
2018-05-27T10:29:25.691Z,64.00
2018-05-27T10:31:55.492Z,62.60
2018-05-27T10:34:25.194Z,62.00
2018-05-27T10:36:55.828Z,60.00
2018-05-27T10:39:26.288Z,59.90
2018-05-27T10:41:55.939Z,59.80
2018-05-27T10:44:26.411Z,60.80
2018-05-27T10:46:56.076Z,60.70
2018-05-27T10:49:26.535Z,60.10
2018-05-27T10:51:56.507Z,60.00
2018-05-27T10:54:26.201Z,61.90
2018-05-27T10:56:55.867Z,62.20
2018-05-27T10:59:25.593Z,60.50
2018-05-27T11:01:56.196Z,59.80
2018-05-27T11:04:26.643Z,59.60
2018-05-27T11:06:56.480Z,59.50
2018-05-27T11:09:26.179Z,59.50
2018-05-27T11:11:55.844Z,61.40
2018-05-27T11:14:26.300Z,60.60
2018-05-27T11:16:55.990Z,60.50
2018-05-27T11:19:26.415Z,57.60
2018-05-27T11:21:56.863Z,57.90
2018-05-27T11:24:26.537Z,57.90
2018-05-27T11:26:56.996Z,57.50
2018-05-27T11:29:26.659Z,57.50
2018-05-27T11:31:56.352Z,57.90
2018-05-27T11:34:26.036Z,59.10
2018-05-27T11:36:55.738Z,57.30
2018-05-27T11:39:26.343Z,57.50
2018-05-27T11:41:56.791Z,60.00
2018-05-27T11:44:26.463Z,60.00
2018-05-27T11:46:56.915Z,57.60
2018-05-27T11:49:26.585Z,57.50
2018-05-27T11:51:56.267Z,56.90
2018-05-27T11:54:25.923Z,58.90
2018-05-27T11:56:56.392Z,56.90
2018-05-27T11:59:26.984Z,56.90
2018-05-27T12:01:57.468Z,57.60
2018-05-27T12:04:27.318Z,57.50
2018-05-27T12:06:57.764Z,55.90
2018-05-27T12:09:27.517Z,55.90
2018-05-27T12:11:57.328Z,55.70
2018-05-27T12:14:27.014Z,57.70
2018-05-27T12:16:56.995Z,57.20
2018-05-27T12:19:27.423Z,53.10
2018-05-27T12:21:57.858Z,55.10
2018-05-27T12:24:27.527Z,55.00
2018-05-27T12:26:57.210Z,55.40
2018-05-27T12:29:26.583Z,56.30
2018-05-27T12:31:56.279Z,57.20
2018-05-27T12:34:25.658Z,54.40
2018-05-27T12:36:55.371Z,56.10
2018-05-27T12:39:25.476Z,55.20
2018-05-27T12:41:55.148Z,54.50
2018-05-27T12:44:24.799Z,54.70
2018-05-27T12:46:54.479Z,54.50
2018-05-27T12:49:25.507Z,54.70
2018-05-27T12:51:55.985Z,54.20
2018-05-27T12:54:26.448Z,52.60
2018-05-27T12:56:56.145Z,52.60
2018-05-27T12:59:25.819Z,51.90
2018-05-27T13:01:55.519Z,51.30
2018-05-27T13:04:25.199Z,51.30
2018-05-27T13:06:54.891Z,49.90
2018-05-27T13:09:24.559Z,49.90
2018-05-27T13:11:54.272Z,45.30
2018-05-27T13:14:23.940Z,46.70
2018-05-27T13:16:53.790Z,47.80
2018-05-27T13:19:23.511Z,47.40
2018-05-27T13:21:53.980Z,45.80
2018-05-27T13:24:23.647Z,45.50
2018-05-27T13:26:54.103Z,45.30
2018-05-27T13:29:23.774Z,45.10
2018-05-27T13:31:54.235Z,45.20
2018-05-27T13:34:23.907Z,45.00
2018-05-27T13:36:53.603Z,46.40
2018-05-27T13:39:23.281Z,45.30
2018-05-27T13:41:52.975Z,45.60
2018-05-27T13:44:22.658Z,44.50
2018-05-27T13:46:53.107Z,45.80
2018-05-27T13:49:22.778Z,45.80
2018-05-27T13:51:52.484Z,48.70
2018-05-27T13:54:22.156Z,47.50
2018-05-27T13:56:52.056Z,46.00
2018-05-27T13:59:21.731Z,45.40
2018-05-27T14:01:52.195Z,43.90
2018-05-27T14:04:21.868Z,43.90
2018-05-27T14:06:51.995Z,43.70
2018-05-27T14:09:22.439Z,45.40
2018-05-27T14:11:52.144Z,45.40
2018-05-27T14:14:22.190Z,43.40
2018-05-27T14:16:51.874Z,44.40
2018-05-27T14:19:21.551Z,45.20
2018-05-27T14:21:51.544Z,44.10
2018-05-27T14:24:20.987Z,44.00
2018-05-27T14:26:50.683Z,44.60
2018-05-27T14:29:21.151Z,44.30
2018-05-27T14:31:52.089Z,44.10
2018-05-27T14:34:21.761Z,44.10
2018-05-27T14:36:52.255Z,43.10
2018-05-27T14:39:22.099Z,43.00
2018-05-27T14:41:52.561Z,43.50
2018-05-27T14:44:22.237Z,43.40
2018-05-27T14:46:52.699Z,45.00
2018-05-27T14:49:22.371Z,45.00
2018-05-27T14:51:52.031Z,47.80
2018-05-27T14:54:21.701Z,45.20
2018-05-27T14:56:52.167Z,44.20
2018-05-27T14:59:21.863Z,44.20
2018-05-27T15:01:51.559Z,43.20
2018-05-27T15:04:21.261Z,48.90
2018-05-27T15:06:51.353Z,50.80
2018-05-27T15:09:21.035Z,50.80
2018-05-27T15:11:50.711Z,50.80
2018-05-27T15:14:20.392Z,50.80
2018-05-27T15:16:50.372Z,51.10
2018-05-27T15:19:20.088Z,52.20
2018-05-27T15:21:49.931Z,52.90
2018-05-27T15:24:20.412Z,53.70
2018-05-27T15:26:50.080Z,53.70
2018-05-27T15:29:19.792Z,53.80
2018-05-27T15:31:49.470Z,54.30
2018-05-27T15:34:19.160Z,54.30
2018-05-27T15:36:48.835Z,55.70
2018-05-27T15:39:18.524Z,54.70
2018-05-27T15:41:48.208Z,55.90
2018-05-27T15:44:18.383Z,56.60
2018-05-27T15:46:47.759Z,56.60
2018-05-27T15:49:18.211Z,53.70
2018-05-27T15:51:47.887Z,53.70
2018-05-27T15:54:18.348Z,53.90
2018-05-27T15:56:47.720Z,53.80
2018-05-27T15:59:17.116Z,53.90
2018-05-27T16:01:47.567Z,54.10
2018-05-27T16:04:17.269Z,54.00
2018-05-27T16:06:46.967Z,54.60
2018-05-27T16:09:17.426Z,55.60
2018-05-27T16:11:47.102Z,56.20
2018-05-27T16:14:16.516Z,56.60
2018-05-27T16:16:46.180Z,54.80
2018-05-27T16:19:15.587Z,54.80
2018-05-27T16:21:45.255Z,54.50
2018-05-27T16:24:14.655Z,54.50
2018-05-27T16:26:44.324Z,55.10
2018-05-27T16:29:14.791Z,55.20
2018-05-27T16:31:44.475Z,55.20
2018-05-27T16:34:14.166Z,55.20
2018-05-27T16:36:43.836Z,54.00
2018-05-27T16:39:13.526Z,54.50
2018-05-27T16:41:43.204Z,55.10
2018-05-27T16:44:12.900Z,55.20
2018-05-27T16:46:43.395Z,55.30
2018-05-27T16:49:13.256Z,55.30
2018-05-27T16:51:42.933Z,54.70
2018-05-27T16:54:12.636Z,55.30
2018-05-27T16:56:42.331Z,55.40
2018-05-27T16:59:12.147Z,54.30
2018-05-27T17:01:41.857Z,54.70
2018-05-27T17:04:11.543Z,55.00
2018-05-27T17:06:41.226Z,55.70
2018-05-27T17:09:11.980Z,56.70
2018-05-27T17:11:42.162Z,56.60
2018-05-27T17:14:11.860Z,54.00
2018-05-27T17:16:42.323Z,55.80
2018-05-27T17:19:12.051Z,55.70
2018-05-27T17:21:42.503Z,55.70
2018-05-27T17:24:12.223Z,55.70
2018-05-27T17:26:41.903Z,54.50
2018-05-27T17:29:11.603Z,54.40
2018-05-27T17:31:41.278Z,54.60
2018-05-27T17:34:10.995Z,54.40
2018-05-27T17:36:40.772Z,54.30
2018-05-27T17:39:10.472Z,54.60
2018-05-27T17:41:40.165Z,55.10
2018-05-27T17:44:09.855Z,55.60
2018-05-27T17:46:39.540Z,55.60
2018-05-27T17:49:09.252Z,55.60
2018-05-27T17:51:38.940Z,55.70
2018-05-27T17:54:09.403Z,56.30
2018-05-27T17:56:39.075Z,55.70
2018-05-27T17:59:14.344Z,55.00
2018-05-27T18:01:44.020Z,55.30
2018-05-27T18:04:13.837Z,56.60
2018-05-27T18:06:43.679Z,56.50
2018-05-27T18:09:13.379Z,56.80
2018-05-27T18:11:43.055Z,56.60
2018-05-27T18:14:12.746Z,55.90
2018-05-27T18:16:42.423Z,56.10
2018-05-27T18:19:12.119Z,55.30
2018-05-27T18:21:41.795Z,55.00
2018-05-27T18:24:11.831Z,54.80
2018-05-27T18:26:42.275Z,55.10
2018-05-27T18:29:12.715Z,56.00
2018-05-27T18:31:42.403Z,55.90
2018-05-27T18:34:12.536Z,55.70
2018-05-27T18:36:42.220Z,55.70
2018-05-27T18:39:12.688Z,56.20
2018-05-27T18:41:42.383Z,56.20
2018-05-27T18:44:12.087Z,56.50
2018-05-27T18:46:41.459Z,56.80
2018-05-27T18:49:11.140Z,57.30
2018-05-27T18:51:40.863Z,57.30
2018-05-27T18:54:10.552Z,57.60
2018-05-27T18:56:40.259Z,57.20
2018-05-27T18:59:09.941Z,56.60
2018-05-27T19:01:39.640Z,56.40
2018-05-27T19:04:09.346Z,56.20
2018-05-27T19:06:39.799Z,56.50
2018-05-27T19:09:09.483Z,56.40
2018-05-27T19:11:39.271Z,56.40
2018-05-27T19:14:08.952Z,56.40
2018-05-27T19:16:38.657Z,56.80
2018-05-27T19:19:08.375Z,56.80
2018-05-27T19:21:38.093Z,56.70
2018-05-27T19:24:07.804Z,56.70
2018-05-27T19:26:37.496Z,56.90
2018-05-27T19:29:07.169Z,57.70
2018-05-27T19:31:37.603Z,59.30
2018-05-27T19:34:07.312Z,59.30
2018-05-27T19:36:36.995Z,59.90
2018-05-27T19:39:06.024Z,60.40
2018-05-27T19:41:35.727Z,60.70
2018-05-27T19:44:05.403Z,61.10
2018-05-27T19:46:35.380Z,61.40
2018-05-27T19:49:05.061Z,62.50
2018-05-27T19:51:35.724Z,63.90
2018-05-27T19:54:05.404Z,63.90
2018-05-27T19:56:35.101Z,64.00
2018-05-27T19:59:05.538Z,64.90
2018-05-27T20:01:35.232Z,64.90
2018-05-27T20:04:05.328Z,64.00
2018-05-27T20:06:35.008Z,64.00
2018-05-27T20:09:03.768Z,64.80
2018-05-27T20:11:33.453Z,63.70
2018-05-27T20:14:03.886Z,63.60
2018-05-27T20:16:33.572Z,63.50
2018-05-27T20:19:03.247Z,63.90
2018-05-27T20:21:32.988Z,64.40
2018-05-27T20:24:02.659Z,65.50
2018-05-27T20:26:32.362Z,66.10
2018-05-27T20:29:02.391Z,66.60
2018-05-27T20:31:32.243Z,66.50
2018-05-27T20:34:02.693Z,67.00
2018-05-27T20:36:33.137Z,66.80
2018-05-27T20:39:02.579Z,66.70
2018-05-27T20:41:32.291Z,66.60
2018-05-27T20:44:02.151Z,66.60
2018-05-27T20:46:31.840Z,67.60
2018-05-27T20:49:02.281Z,67.30
2018-05-27T20:51:31.972Z,67.20
2018-05-27T20:54:02.404Z,68.10
2018-05-27T20:56:32.899Z,67.30
2018-05-27T20:59:02.399Z,67.30
2018-05-27T21:01:32.087Z,67.20
2018-05-27T21:04:01.815Z,67.10
2018-05-27T21:06:31.323Z,67.20
2018-05-27T21:09:01.032Z,67.40
2018-05-27T21:11:30.729Z,67.40
2018-05-27T21:14:00.401Z,67.50
2018-05-27T21:16:30.123Z,67.50
2018-05-27T21:18:59.801Z,67.10
2018-05-27T21:21:30.258Z,67.80
2018-05-27T21:24:00.260Z,67.80
2018-05-27T21:26:29.972Z,68.40
2018-05-27T21:28:59.636Z,68.70
2018-05-27T21:31:29.336Z,68.90
2018-05-27T21:33:59.004Z,69.90
2018-05-27T21:36:28.695Z,69.10
2018-05-27T21:38:59.133Z,69.10
2018-05-27T21:41:28.831Z,69.10
2018-05-27T21:43:59.273Z,69.10
2018-05-27T21:46:28.964Z,69.10
2018-05-27T21:48:59.395Z,69.30
2018-05-27T21:51:29.851Z,69.30
2018-05-27T21:53:59.514Z,69.30
2018-05-27T21:56:29.983Z,69.40
2018-05-27T21:58:59.655Z,69.30
2018-05-27T22:01:30.140Z,70.00
2018-05-27T22:03:59.817Z,70.00
2018-05-27T22:06:29.504Z,70.50
2018-05-27T22:08:59.939Z,70.80
2018-05-27T22:11:29.636Z,70.80
2018-05-27T22:14:00.072Z,71.30
2018-05-27T22:16:30.531Z,71.20
2018-05-27T22:19:00.208Z,71.10
2018-05-27T22:21:30.673Z,70.90
2018-05-27T22:24:00.339Z,70.80
2018-05-27T22:26:30.803Z,71.00
2018-05-27T22:29:00.475Z,71.00
2018-05-27T22:31:30.940Z,71.30
2018-05-27T22:34:00.620Z,71.20
2018-05-27T22:36:30.307Z,71.50
2018-05-27T22:39:00.778Z,72.40
2018-05-27T22:41:30.532Z,72.30
2018-05-27T22:44:00.223Z,72.50
2018-05-27T22:46:29.891Z,72.60
2018-05-27T22:48:59.583Z,72.80
2018-05-27T22:51:29.255Z,73.00
2018-05-27T22:53:58.951Z,73.10
2018-05-27T22:56:34.860Z,72.80
2018-05-27T22:59:05.322Z,72.80
2018-05-27T23:01:34.996Z,72.80
2018-05-27T23:04:04.896Z,73.30
2018-05-27T23:06:35.336Z,73.60
2018-05-27T23:09:06.195Z,74.40
2018-05-27T23:11:38.671Z,74.40
2018-05-27T23:14:08.359Z,74.40
2018-05-27T23:16:38.031Z,74.30
2018-05-27T23:19:07.723Z,74.10
2018-05-27T23:21:37.396Z,74.20
2018-05-27T23:24:08.153Z,74.30
2018-05-27T23:26:38.106Z,74.20
2018-05-27T23:29:08.091Z,74.20
2018-05-27T23:31:38.056Z,74.80
2018-05-27T23:34:08.523Z,75.10
2018-05-27T23:36:38.205Z,75.10
2018-05-27T23:39:07.890Z,75.40
2018-05-27T23:41:37.559Z,75.60
2018-05-27T23:44:07.450Z,75.70
2018-05-27T23:46:36.561Z,76.00
2018-05-27T23:49:06.456Z,76.00
2018-05-27T23:51:35.568Z,75.90
2018-05-27T23:54:05.469Z,76.60
2018-05-27T23:56:35.156Z,76.50
2018-05-27T23:59:05.620Z,76.80
